createdAt,value
2018-01-17T00:02:44.943Z,90.03
2018-01-17T00:08:48.374Z,89.54
2018-01-17T00:14:51.829Z,88.99
2018-01-17T00:20:55.276Z,88.40
2018-01-17T00:26:59.123Z,87.27
2018-01-17T00:33:02.596Z,86.74
2018-01-17T00:39:06.017Z,85.15
2018-01-17T00:45:10.274Z,86.94
2018-01-17T00:51:14.479Z,88.81
2018-01-17T00:57:18.074Z,89.24
2018-01-17T01:03:21.627Z,89.32
2018-01-17T01:09:25.493Z,89.04
2018-01-17T01:15:28.975Z,89.15
2018-01-17T01:21:33.203Z,89.21
2018-01-17T01:27:36.649Z,87.74
2018-01-17T01:33:40.188Z,87.80
2018-01-17T01:39:43.660Z,88.19
2018-01-17T01:45:47.171Z,88.68
2018-01-17T01:51:51.404Z,89.21
2018-01-17T01:57:56.017Z,89.80
2018-01-17T02:03:59.569Z,89.69
2018-01-17T02:10:03.798Z,89.36
2018-01-17T02:16:07.258Z,89.21
2018-01-17T02:22:10.693Z,89.41
2018-01-17T02:28:14.153Z,88.72
2018-01-17T02:34:17.676Z,88.15
2018-01-17T02:40:39.747Z,88.62
2018-01-17T02:46:43.322Z,88.75
2018-01-17T02:52:46.758Z,88.42
2018-01-17T02:58:51.100Z,87.95
2018-01-17T03:04:54.835Z,88.36
2018-01-17T03:10:59.118Z,88.27
2018-01-17T03:17:02.667Z,87.78
2018-01-17T03:23:06.228Z,87.78
2018-01-17T03:29:09.668Z,87.55
2018-01-17T03:35:13.228Z,87.00
2018-01-17T03:41:16.934Z,86.46
2018-01-17T03:47:21.207Z,86.25
2018-01-17T03:53:25.538Z,85.99
2018-01-17T03:59:29.029Z,86.07
2018-01-17T04:05:32.478Z,86.08
2018-01-17T04:11:36.038Z,85.69
2018-01-17T04:17:39.492Z,87.10
2018-01-17T04:23:42.938Z,88.63
2018-01-17T04:29:46.447Z,89.48
2018-01-17T04:35:49.890Z,90.50
2018-01-17T04:41:54.002Z,91.56
2018-01-17T04:47:59.072Z,93.37
2018-01-17T04:54:02.528Z,94.72
2018-01-17T05:00:06.187Z,95.11
2018-01-17T05:06:09.823Z,95.03
2018-01-17T05:12:13.303Z,95.07
2018-01-17T05:18:16.795Z,95.12
2018-01-17T05:24:21.012Z,95.16
2018-01-17T05:30:25.528Z,95.04
2018-01-17T05:36:28.957Z,94.99
2018-01-17T05:42:32.425Z,94.55
2018-01-17T05:48:35.862Z,94.25
2018-01-17T05:54:39.389Z,93.85
2018-01-17T06:00:42.887Z,93.93
2018-01-17T06:06:46.356Z,94.04
2018-01-17T06:12:50.576Z,93.92
2018-01-17T06:18:54.131Z,93.29
2018-01-17T06:24:57.999Z,93.26
2018-01-17T06:31:01.499Z,93.11
2018-01-17T06:37:05.729Z,93.24
2018-01-17T06:43:09.379Z,93.30
2018-01-17T06:49:12.854Z,93.50
2018-01-17T06:55:16.307Z,93.33
2018-01-17T07:01:19.801Z,93.50
2018-01-17T07:07:23.303Z,93.60
2018-01-17T07:13:27.226Z,93.89
2018-01-17T07:19:30.696Z,93.97
2018-01-17T07:25:34.178Z,94.19
2018-01-17T07:31:37.655Z,94.24
2018-01-17T07:37:41.906Z,94.24
2018-01-17T07:43:45.379Z,93.99
2018-01-17T07:49:48.825Z,93.54
2018-01-17T07:55:52.277Z,93.60
2018-01-17T08:01:55.875Z,93.34
2018-01-17T08:07:59.385Z,92.30
2018-01-17T08:14:02.900Z,91.38
2018-01-17T08:20:06.381Z,90.64
2018-01-17T08:26:09.858Z,88.09
2018-01-17T08:32:14.796Z,88.77
2018-01-17T08:38:18.234Z,87.57
2018-01-17T08:44:21.663Z,87.46
2018-01-17T08:50:26.272Z,87.26
2018-01-17T08:56:30.155Z,85.98
2018-01-17T09:02:33.601Z,86.31
2018-01-17T09:08:37.083Z,86.45
2018-01-17T09:14:40.803Z,86.93
2018-01-17T09:20:44.261Z,85.75
2018-01-17T09:26:47.872Z,84.93
2018-01-17T09:32:51.335Z,85.14
2018-01-17T09:38:55.809Z,83.75
2018-01-17T09:44:59.644Z,84.45
2018-01-17T09:51:03.129Z,85.10
2018-01-17T09:57:07.379Z,85.43
2018-01-17T10:03:11.679Z,85.83
2018-01-17T10:09:15.896Z,85.63
2018-01-17T10:15:19.434Z,84.51
2018-01-17T10:21:22.900Z,83.81
2018-01-17T10:27:26.639Z,83.64
2018-01-17T10:33:30.098Z,83.91
2018-01-17T10:39:33.948Z,84.00
2018-01-17T10:45:38.131Z,86.65
2018-01-17T10:51:41.587Z,91.33
2018-01-17T10:57:45.045Z,93.11
2018-01-17T11:03:48.506Z,93.76
2018-01-17T11:09:52.076Z,93.74
2018-01-17T11:15:56.966Z,93.46
2018-01-17T11:22:01.648Z,91.96
2018-01-17T11:28:05.104Z,88.33
2018-01-17T11:34:08.629Z,86.94
2018-01-17T11:40:12.084Z,85.32
2018-01-17T11:46:15.542Z,84.49
2018-01-17T11:52:18.975Z,81.97
2018-01-17T11:58:22.434Z,84.26
2018-01-17T12:04:26.100Z,83.25
2018-01-17T12:10:29.553Z,82.73
2018-01-17T12:16:33.013Z,82.83
2018-01-17T12:22:36.461Z,82.43
2018-01-17T12:28:39.926Z,82.65
2018-01-17T12:34:43.424Z,82.77
2018-01-17T12:40:47.639Z,82.43
2018-01-17T12:46:51.114Z,82.81
2018-01-17T12:52:54.618Z,83.06
2018-01-17T12:58:59.161Z,82.62
2018-01-17T13:05:02.612Z,81.46
2018-01-17T13:11:06.048Z,82.20
2018-01-17T13:17:09.534Z,84.02
2018-01-17T13:23:13.758Z,83.86
2018-01-17T13:29:17.238Z,81.77
2018-01-17T13:35:20.643Z,83.22
2018-01-17T13:41:24.116Z,80.30
2018-01-17T13:47:27.635Z,81.88
2018-01-17T13:53:31.282Z,80.54
2018-01-17T13:59:35.579Z,80.77
2018-01-17T14:05:39.203Z,82.73
2018-01-17T14:11:43.553Z,84.39
2018-01-17T14:17:47.098Z,83.06
2018-01-17T14:23:50.608Z,82.18
2018-01-17T14:29:54.934Z,82.51
2018-01-17T14:35:58.998Z,84.60
2018-01-17T14:42:02.625Z,86.83
2018-01-17T14:48:06.088Z,87.85
2018-01-17T14:54:09.544Z,88.66
2018-01-17T15:00:16.403Z,88.91
2018-01-17T15:06:19.850Z,90.02
2018-01-17T15:12:23.308Z,91.44
2018-01-17T15:18:28.170Z,92.58
2018-01-17T15:24:31.768Z,93.00
2018-01-17T15:30:35.279Z,93.38
2018-01-17T15:36:39.502Z,93.89
2018-01-17T15:42:43.709Z,94.02
2018-01-17T15:48:47.157Z,94.65
2018-01-17T15:54:50.590Z,94.82
2018-01-17T16:00:54.071Z,94.67
2018-01-17T16:06:58.234Z,94.50
2018-01-17T16:13:01.825Z,94.44
2018-01-17T16:19:05.264Z,94.23
2018-01-17T16:25:08.698Z,94.16
2018-01-17T16:31:12.155Z,94.06
2018-01-17T16:37:15.627Z,93.93
2018-01-17T16:43:19.163Z,93.48
2018-01-17T16:49:22.799Z,92.99
2018-01-17T16:55:26.915Z,93.24
2018-01-17T17:01:30.380Z,93.90
2018-01-17T17:07:33.832Z,94.40
2018-01-17T17:13:37.298Z,94.87
2018-01-17T17:19:41.095Z,95.29
2018-01-17T17:25:44.517Z,95.40
2018-01-17T17:31:48.757Z,95.37
2018-01-17T17:37:52.173Z,95.56
2018-01-17T17:43:55.662Z,95.64
2018-01-17T17:49:59.335Z,95.76
2018-01-17T17:56:02.796Z,95.80
2018-01-17T18:02:06.262Z,95.77
2018-01-17T18:08:09.714Z,95.65
2018-01-17T18:14:14.210Z,95.54
2018-01-17T18:20:17.714Z,95.17
2018-01-17T18:26:21.285Z,94.37
2018-01-17T18:32:25.479Z,93.20
2018-01-17T18:38:29.080Z,92.51
2018-01-17T18:44:32.610Z,92.09
2018-01-17T18:50:36.047Z,92.04
2018-01-17T18:56:40.258Z,91.97
2018-01-17T19:02:43.747Z,91.15
2018-01-17T19:08:47.191Z,90.16
2018-01-17T19:14:51.490Z,89.53
2018-01-17T19:20:55.962Z,89.21
2018-01-17T19:27:00.262Z,89.18
2018-01-17T19:33:03.703Z,89.61
2018-01-17T19:39:07.168Z,89.33
2018-01-17T19:45:10.659Z,89.70
2018-01-17T19:51:14.128Z,89.45
2018-01-17T19:57:17.596Z,89.42
2018-01-17T20:03:22.209Z,88.87
2018-01-17T20:09:26.036Z,90.14
2018-01-17T20:15:29.600Z,89.02
2018-01-17T20:21:33.857Z,88.53
2018-01-17T20:27:37.322Z,89.98
2018-01-17T20:33:41.006Z,92.14
2018-01-17T20:39:44.518Z,92.68
2018-01-17T20:45:48.062Z,92.89
2018-01-17T20:51:51.593Z,92.73
2018-01-17T20:57:55.495Z,92.73
2018-01-17T21:03:59.724Z,92.37
2018-01-17T21:10:03.242Z,92.12
2018-01-17T21:16:07.459Z,92.19
2018-01-17T21:22:10.904Z,91.77
2018-01-17T21:28:14.337Z,92.42
2018-01-17T21:34:17.778Z,93.16
2018-01-17T21:40:21.208Z,93.69
2018-01-17T21:46:24.843Z,93.82
2018-01-17T21:52:28.536Z,93.80
2018-01-17T21:58:32.759Z,93.81
2018-01-17T22:04:36.218Z,93.78
2018-01-17T22:10:39.694Z,93.75
2018-01-17T22:16:43.265Z,94.72
2018-01-17T22:22:47.465Z,92.68
2018-01-17T22:28:50.872Z,91.39
2018-01-17T22:34:54.512Z,92.04
2018-01-17T22:40:58.609Z,92.38
2018-01-17T22:47:02.830Z,92.55
2018-01-17T22:53:06.278Z,92.49
2018-01-17T22:59:09.741Z,92.24
2018-01-17T23:05:13.186Z,92.13
2018-01-17T23:11:16.644Z,91.16
2018-01-17T23:17:20.189Z,91.77
2018-01-17T23:23:23.878Z,92.06
2018-01-17T23:29:27.381Z,92.16
2018-01-17T23:35:30.929Z,92.23
2018-01-17T23:41:34.369Z,92.42
2018-01-17T23:47:38.574Z,92.26
2018-01-17T23:53:42.080Z,91.38
2018-01-17T23:59:45.550Z,91.87
